createdAt,value
2022-11-30T00:01:12.865Z,6.30
2022-11-30T00:03:39.949Z,6.30
2022-11-30T00:06:11.637Z,6.30
2022-11-30T00:08:38.664Z,6.30
2022-11-30T00:11:15.631Z,6.30
2022-11-30T00:13:42.265Z,6.20
2022-11-30T00:16:09.796Z,6.20
2022-11-30T00:18:37.253Z,6.20
2022-11-30T00:21:06.708Z,6.20
2022-11-30T00:23:38.620Z,6.30
2022-11-30T00:26:07.687Z,6.30
2022-11-30T00:28:35.983Z,6.30
2022-11-30T00:31:06.361Z,6.20
2022-11-30T00:33:34.409Z,6.30
2022-11-30T00:36:03.511Z,6.30
2022-11-30T00:38:32.563Z,6.20
2022-11-30T00:41:00.543Z,6.30
2022-11-30T00:43:27.591Z,6.30
2022-11-30T00:45:54.636Z,6.30
2022-11-30T00:48:21.542Z,6.20
2022-11-30T00:50:49.296Z,6.30
2022-11-30T00:53:16.131Z,6.30
2022-11-30T00:55:44.406Z,6.30
2022-11-30T00:58:11.940Z,6.30
2022-11-30T01:00:40.111Z,6.30
2022-11-30T01:03:06.850Z,6.30
2022-11-30T01:05:34.915Z,6.20
2022-11-30T01:08:03.270Z,6.30
2022-11-30T01:10:30.119Z,6.30
2022-11-30T01:12:57.117Z,6.30
2022-11-30T01:15:24.019Z,6.30
2022-11-30T01:17:50.617Z,6.30
2022-11-30T01:20:17.653Z,6.30
2022-11-30T01:22:44.396Z,6.20
2022-11-30T01:25:11.110Z,6.20
2022-11-30T01:27:38.554Z,6.10
2022-11-30T01:30:06.024Z,6.20
2022-11-30T01:32:32.603Z,6.20
2022-11-30T01:35:00.599Z,6.10
2022-11-30T01:37:29.965Z,6.10
2022-11-30T01:39:56.816Z,6.20
2022-11-30T01:42:23.726Z,6.20
2022-11-30T01:44:56.415Z,6.20
2022-11-30T01:47:39.208Z,6.20
2022-11-30T01:50:38.421Z,6.30
2022-11-30T01:53:09.299Z,6.30
2022-11-30T01:55:46.417Z,6.20
2022-11-30T01:58:18.436Z,6.20
2022-11-30T02:00:47.947Z,6.20
2022-11-30T02:03:55.857Z,6.20
2022-11-30T02:06:25.201Z,6.20
2022-11-30T02:08:53.706Z,6.20
2022-11-30T02:11:20.717Z,6.20
2022-11-30T02:14:09.217Z,6.20
2022-11-30T02:16:35.932Z,6.20
2022-11-30T02:19:14.670Z,6.20
2022-11-30T02:21:49.197Z,6.20
2022-11-30T02:24:53.787Z,6.20
2022-11-30T02:27:53.430Z,6.20
2022-11-30T02:30:22.384Z,6.20
2022-11-30T02:32:52.826Z,6.20
2022-11-30T02:35:24.963Z,6.20
2022-11-30T02:37:54.216Z,6.20
2022-11-30T02:40:21.838Z,6.20
2022-11-30T02:42:51.882Z,6.20
2022-11-30T02:45:34.819Z,6.20
2022-11-30T02:48:09.181Z,6.20
2022-11-30T02:50:44.370Z,6.20
2022-11-30T02:53:11.255Z,6.30
2022-11-30T02:55:38.080Z,6.20
2022-11-30T02:58:05.790Z,6.20
2022-11-30T03:00:32.666Z,6.20
2022-11-30T03:02:59.399Z,6.30
2022-11-30T03:05:26.101Z,6.20
2022-11-30T03:07:52.874Z,6.20
2022-11-30T03:10:19.669Z,6.20
2022-11-30T03:12:46.230Z,6.20
2022-11-30T03:15:12.784Z,6.20
2022-11-30T03:17:39.623Z,6.20
2022-11-30T03:20:07.617Z,6.20
2022-11-30T03:22:35.001Z,6.20
2022-11-30T03:25:01.735Z,6.20
2022-11-30T03:27:28.301Z,6.20
2022-11-30T03:29:55.142Z,6.20
2022-11-30T03:32:21.822Z,6.20
2022-11-30T03:34:48.702Z,6.20
2022-11-30T03:37:15.624Z,6.20
2022-11-30T03:39:42.182Z,6.20
2022-11-30T03:42:08.928Z,6.20
2022-11-30T03:44:35.672Z,6.20
2022-11-30T03:47:02.277Z,6.20
2022-11-30T03:49:28.901Z,6.20
2022-11-30T03:51:55.453Z,6.20
2022-11-30T03:54:22.432Z,6.20
2022-11-30T03:56:49.150Z,6.20
2022-11-30T03:59:15.813Z,6.20
2022-11-30T04:01:42.454Z,6.20
2022-11-30T04:04:09.270Z,6.20
2022-11-30T04:06:36.169Z,6.30
2022-11-30T04:09:04.082Z,6.20
2022-11-30T04:11:30.873Z,6.20
2022-11-30T04:13:57.482Z,6.20
2022-11-30T04:16:24.248Z,6.20
2022-11-30T04:18:50.863Z,6.20
2022-11-30T04:21:18.222Z,6.20
2022-11-30T04:23:45.175Z,6.20
2022-11-30T04:26:13.920Z,6.20
2022-11-30T04:28:40.601Z,6.20
2022-11-30T04:31:07.429Z,6.20
2022-11-30T04:33:35.051Z,6.20
2022-11-30T04:36:04.385Z,6.20
2022-11-30T04:38:32.753Z,6.20
2022-11-30T04:40:59.416Z,6.20
2022-11-30T04:43:27.155Z,6.20
2022-11-30T04:45:53.944Z,6.10
2022-11-30T04:48:20.727Z,6.20
2022-11-30T04:50:47.515Z,6.20
2022-11-30T04:53:14.090Z,6.20
2022-11-30T04:55:40.856Z,6.20
2022-11-30T04:58:07.852Z,6.20
2022-11-30T05:00:35.901Z,6.20
2022-11-30T05:03:02.915Z,6.20
2022-11-30T05:05:29.742Z,6.30
2022-11-30T05:07:59.359Z,6.20
2022-11-30T05:10:28.338Z,6.20
2022-11-30T05:12:55.530Z,6.20
2022-11-30T05:15:22.496Z,6.20
2022-11-30T05:17:49.270Z,6.20
2022-11-30T05:20:15.930Z,6.20
2022-11-30T05:22:42.556Z,6.20
2022-11-30T05:25:09.886Z,6.10
2022-11-30T05:27:36.786Z,6.10
2022-11-30T05:30:04.975Z,6.20
2022-11-30T05:32:31.767Z,6.20
2022-11-30T05:34:58.861Z,6.20
2022-11-30T05:37:25.867Z,6.20
2022-11-30T05:39:52.777Z,6.20
2022-11-30T05:42:19.452Z,6.20
2022-11-30T05:44:48.369Z,6.30
2022-11-30T05:47:15.897Z,6.20
2022-11-30T05:49:43.332Z,6.20
2022-11-30T05:52:09.968Z,6.20
2022-11-30T05:54:36.540Z,6.20
2022-11-30T05:57:03.248Z,6.20
2022-11-30T05:59:30.876Z,6.20
2022-11-30T06:01:57.624Z,6.20
2022-11-30T06:04:24.399Z,6.20
2022-11-30T06:06:52.539Z,6.20
2022-11-30T06:09:19.157Z,6.20
2022-11-30T06:11:45.802Z,6.20
2022-11-30T06:14:12.424Z,6.20
2022-11-30T06:16:40.104Z,6.20
2022-11-30T06:19:07.009Z,6.20
2022-11-30T06:21:36.258Z,6.20
2022-11-30T06:24:02.913Z,6.20
2022-11-30T06:26:30.275Z,6.20
2022-11-30T06:28:56.869Z,6.30
2022-11-30T06:31:23.667Z,6.20
2022-11-30T06:33:50.398Z,6.20
2022-11-30T06:36:23.537Z,6.20
2022-11-30T06:38:51.473Z,6.20
2022-11-30T06:41:18.589Z,6.20
2022-11-30T06:43:45.290Z,6.20
2022-11-30T06:46:11.959Z,6.20
2022-11-30T06:48:38.671Z,6.20
2022-11-30T06:51:07.386Z,6.10
2022-11-30T06:53:34.461Z,6.10
2022-11-30T06:56:09.924Z,6.10
2022-11-30T06:58:41.848Z,6.10
2022-11-30T07:01:10.677Z,6.10
2022-11-30T07:03:37.668Z,6.00
2022-11-30T07:06:14.562Z,6.10
2022-11-30T07:08:42.631Z,6.10
2022-11-30T07:11:10.943Z,6.10
2022-11-30T07:13:37.684Z,6.10
2022-11-30T07:16:05.996Z,6.10
2022-11-30T07:18:33.093Z,6.10
2022-11-30T07:21:03.515Z,6.10
2022-11-30T07:23:55.510Z,6.10
2022-11-30T07:26:24.183Z,6.20
2022-11-30T07:28:54.971Z,6.20
2022-11-30T07:31:24.834Z,6.10
2022-11-30T07:33:52.149Z,6.20
2022-11-30T07:36:20.946Z,6.20
2022-11-30T07:38:47.573Z,6.20
2022-11-30T07:41:14.592Z,6.20
2022-11-30T07:43:41.418Z,6.20
2022-11-30T07:46:09.828Z,6.10
2022-11-30T07:48:36.656Z,6.10
2022-11-30T07:51:06.083Z,6.10
2022-11-30T07:53:33.221Z,6.10
2022-11-30T07:56:11.670Z,6.10
2022-11-30T07:58:40.939Z,6.20
2022-11-30T08:01:10.292Z,6.20
2022-11-30T08:03:38.010Z,6.10
2022-11-30T08:06:11.478Z,6.10
2022-11-30T08:08:42.351Z,6.10
2022-11-30T08:11:11.627Z,6.10
2022-11-30T08:13:38.667Z,6.10
2022-11-30T08:16:07.902Z,6.10
2022-11-30T08:18:35.244Z,6.20
2022-11-30T08:21:05.011Z,6.20
2022-11-30T08:23:33.835Z,6.10
2022-11-30T08:26:08.348Z,6.20
2022-11-30T08:28:37.996Z,6.20
2022-11-30T08:31:10.971Z,6.10
2022-11-30T08:33:38.366Z,6.10
2022-11-30T08:36:13.625Z,6.10
2022-11-30T08:38:45.285Z,6.20
2022-11-30T08:41:15.119Z,6.20
2022-11-30T08:43:42.166Z,6.20
2022-11-30T08:46:42.477Z,6.20
2022-11-30T08:49:19.715Z,6.20
2022-11-30T08:52:08.758Z,6.10
2022-11-30T08:54:31.805Z,6.10
2022-11-30T08:56:59.068Z,6.20
2022-11-30T08:59:25.946Z,6.20
2022-11-30T09:01:52.504Z,6.10
2022-11-30T09:04:19.136Z,6.20
2022-11-30T09:06:46.769Z,6.20
2022-11-30T09:09:13.567Z,6.30
2022-11-30T09:11:40.123Z,6.30
2022-11-30T09:14:08.923Z,6.30
2022-11-30T09:16:35.767Z,6.30
2022-11-30T09:19:02.546Z,6.30
2022-11-30T09:21:29.304Z,6.30
2022-11-30T09:23:57.125Z,6.30
2022-11-30T09:26:25.329Z,6.30
2022-11-30T09:28:53.061Z,6.30
2022-11-30T09:31:24.919Z,6.40
2022-11-30T09:33:52.529Z,6.30
2022-11-30T09:36:21.351Z,6.40
2022-11-30T09:38:48.882Z,6.40
2022-11-30T09:41:34.435Z,6.40
2022-11-30T09:44:30.082Z,6.40
2022-11-30T09:47:15.242Z,6.40
2022-11-30T09:49:48.365Z,6.40
2022-11-30T09:52:32.048Z,6.40
2022-11-30T09:55:03.211Z,6.40
2022-11-30T09:57:52.535Z,6.40
2022-11-30T10:00:21.875Z,6.40
2022-11-30T10:02:54.514Z,6.40
2022-11-30T10:05:47.115Z,6.50
2022-11-30T10:08:50.706Z,6.50
2022-11-30T10:11:36.053Z,6.40
2022-11-30T10:14:28.153Z,6.50
2022-11-30T10:17:28.531Z,6.50
2022-11-30T10:20:20.293Z,6.50
2022-11-30T10:23:28.248Z,6.50
2022-11-30T10:25:58.542Z,6.50
2022-11-30T10:28:51.546Z,6.50
2022-11-30T10:31:26.202Z,6.50
2022-11-30T10:33:55.344Z,6.50
2022-11-30T10:36:33.118Z,6.60
2022-11-30T10:39:03.781Z,6.50
2022-11-30T10:41:35.421Z,6.50
2022-11-30T10:44:11.711Z,6.50
2022-11-30T10:46:45.437Z,6.50
2022-11-30T10:49:18.565Z,6.60
2022-11-30T10:51:49.035Z,6.60
2022-11-30T10:54:19.147Z,6.50
2022-11-30T10:56:46.667Z,6.50
2022-11-30T10:59:27.757Z,6.50
2022-11-30T11:01:54.383Z,6.50
2022-11-30T11:04:23.681Z,6.50
2022-11-30T11:06:58.059Z,6.60
2022-11-30T11:09:33.770Z,6.60
2022-11-30T11:12:05.680Z,6.60
2022-11-30T11:14:37.962Z,6.60
2022-11-30T11:17:26.349Z,6.60
2022-11-30T11:19:53.391Z,6.60
2022-11-30T11:22:29.532Z,6.60
2022-11-30T11:25:11.846Z,6.70
2022-11-30T11:27:44.700Z,6.60
2022-11-30T11:30:12.300Z,6.60
2022-11-30T11:32:39.042Z,6.60
2022-11-30T11:35:34.332Z,6.60
2022-11-30T11:38:02.439Z,6.60
2022-11-30T11:40:29.041Z,6.60
2022-11-30T11:42:59.706Z,6.60
2022-11-30T11:45:32.045Z,6.60
2022-11-30T11:48:02.815Z,6.60
2022-11-30T11:53:47.391Z,6.70
2022-11-30T11:56:32.055Z,6.70
2022-11-30T11:59:26.859Z,6.60
2022-11-30T12:02:12.596Z,6.60
2022-11-30T12:04:51.163Z,6.70
2022-11-30T12:07:24.232Z,6.70
2022-11-30T12:10:02.951Z,6.70
2022-11-30T12:12:30.000Z,6.70
2022-11-30T12:14:57.398Z,6.60
2022-11-30T12:17:38.693Z,6.70
2022-11-30T12:20:30.091Z,6.70
2022-11-30T12:23:36.277Z,6.70
2022-11-30T12:26:11.416Z,6.70
2022-11-30T12:28:46.249Z,6.70
2022-11-30T12:31:14.363Z,6.60
2022-11-30T12:34:08.445Z,6.60
2022-11-30T12:36:58.081Z,6.60
2022-11-30T12:40:11.848Z,6.60
2022-11-30T12:42:52.063Z,6.60
2022-11-30T12:45:36.172Z,6.50
2022-11-30T12:48:02.707Z,6.50
2022-11-30T12:50:51.574Z,6.60
2022-11-30T12:53:49.612Z,6.60
2022-11-30T12:56:25.310Z,6.70
2022-11-30T12:59:21.134Z,6.70
2022-11-30T13:02:12.467Z,6.70
2022-11-30T13:04:57.702Z,6.60
2022-11-30T13:07:50.525Z,6.60
2022-11-30T13:10:40.176Z,6.60
2022-11-30T13:13:14.900Z,6.50
2022-11-30T13:15:42.508Z,6.50
2022-11-30T13:18:18.019Z,6.60
2022-11-30T13:21:00.603Z,6.50
2022-11-30T13:23:34.417Z,6.60
2022-11-30T13:26:24.891Z,6.60
2022-11-30T13:28:57.604Z,6.60
2022-11-30T13:31:34.157Z,6.60
2022-11-30T13:34:01.338Z,6.60
2022-11-30T13:36:42.421Z,6.60
2022-11-30T13:39:18.920Z,6.60
2022-11-30T13:41:48.762Z,6.50
2022-11-30T13:44:23.203Z,6.50
2022-11-30T13:46:51.859Z,6.50
2022-11-30T13:49:28.365Z,6.50
2022-11-30T13:52:20.888Z,6.50
2022-11-30T13:54:58.161Z,6.50
2022-11-30T13:57:24.698Z,6.50
2022-11-30T13:59:53.463Z,6.50
2022-11-30T14:02:32.667Z,6.50
2022-11-30T14:05:17.803Z,6.50
2022-11-30T14:08:07.300Z,6.50
2022-11-30T14:10:41.704Z,6.50
2022-11-30T14:13:11.327Z,6.50
2022-11-30T14:15:41.718Z,6.50
2022-11-30T14:18:08.251Z,6.50
2022-11-30T14:20:41.629Z,6.40
2022-11-30T14:23:16.127Z,6.40
2022-11-30T14:25:48.262Z,6.40
2022-11-30T14:28:22.509Z,6.40
2022-11-30T14:30:49.555Z,6.40
2022-11-30T14:33:20.914Z,6.40
2022-11-30T14:35:54.640Z,6.40
2022-11-30T14:38:30.829Z,6.50
2022-11-30T14:40:58.417Z,6.50
2022-11-30T14:43:25.390Z,6.40
2022-11-30T14:46:05.086Z,6.50
2022-11-30T14:48:33.952Z,6.50
2022-11-30T14:51:03.895Z,6.50
2022-11-30T14:53:45.798Z,6.60
2022-11-30T14:56:20.172Z,6.50
2022-11-30T14:58:58.465Z,6.50
2022-11-30T15:01:28.672Z,6.40
2022-11-30T15:04:06.519Z,6.40
2022-11-30T15:06:33.882Z,6.40
2022-11-30T15:09:01.662Z,6.40
2022-11-30T15:11:28.637Z,6.40
2022-11-30T15:13:57.691Z,6.40
2022-11-30T15:16:24.309Z,6.40
2022-11-30T15:18:52.016Z,6.50
2022-11-30T15:21:30.275Z,6.50
2022-11-30T15:24:00.155Z,6.50
2022-11-30T15:26:27.373Z,6.50
2022-11-30T15:29:01.084Z,6.40
2022-11-30T15:31:42.513Z,6.40
2022-11-30T15:34:19.710Z,6.40
2022-11-30T15:36:47.205Z,6.40
2022-11-30T15:39:23.349Z,6.30
2022-11-30T15:41:55.432Z,6.30
2022-11-30T15:44:37.152Z,6.30
2022-11-30T15:47:05.853Z,6.30
2022-11-30T15:49:36.122Z,6.40
2022-11-30T15:52:17.124Z,6.30
2022-11-30T15:54:52.658Z,6.30
2022-11-30T15:57:20.236Z,6.30
2022-11-30T16:00:06.203Z,6.30
2022-11-30T16:02:35.921Z,6.40
2022-11-30T16:05:15.018Z,6.30
2022-11-30T16:08:06.132Z,6.40
2022-11-30T16:10:38.363Z,6.40
2022-11-30T16:13:05.935Z,6.30
2022-11-30T16:15:37.664Z,6.30
2022-11-30T16:18:19.200Z,6.20
2022-11-30T16:20:51.814Z,6.20
2022-11-30T16:23:19.231Z,6.20
2022-11-30T16:25:47.167Z,6.30
2022-11-30T16:28:15.822Z,6.30
2022-11-30T16:30:42.534Z,6.30
2022-11-30T16:33:29.829Z,6.20
2022-11-30T16:36:00.823Z,6.20
2022-11-30T16:38:28.483Z,6.20
2022-11-30T16:40:55.876Z,6.20
2022-11-30T16:43:23.577Z,6.20
2022-11-30T16:45:50.818Z,6.20
2022-11-30T16:48:18.186Z,6.10
2022-11-30T16:50:45.227Z,6.20
2022-11-30T16:53:17.420Z,6.20
2022-11-30T16:55:44.299Z,6.20
2022-11-30T16:58:11.092Z,6.30
2022-11-30T17:00:40.173Z,6.20
2022-11-30T17:03:15.492Z,6.20
2022-11-30T17:05:42.075Z,6.20
2022-11-30T17:08:10.139Z,6.20
2022-11-30T17:10:37.913Z,6.20
2022-11-30T17:13:05.205Z,6.20
2022-11-30T17:15:31.990Z,6.20
2022-11-30T17:17:59.291Z,6.20
2022-11-30T17:20:27.469Z,6.20
2022-11-30T17:22:54.012Z,6.20
2022-11-30T17:25:23.018Z,6.30
2022-11-30T17:27:50.654Z,6.30
2022-11-30T17:30:19.592Z,6.30
2022-11-30T17:32:46.600Z,6.30
2022-11-30T17:35:13.564Z,6.30
2022-11-30T17:37:40.290Z,6.30
2022-11-30T17:40:08.945Z,6.30
2022-11-30T17:42:35.759Z,6.30
2022-11-30T17:45:02.559Z,6.30
2022-11-30T17:47:29.151Z,6.30
2022-11-30T17:49:56.581Z,6.30
2022-11-30T17:52:25.740Z,6.30
2022-11-30T17:54:52.395Z,6.30
2022-11-30T17:57:19.163Z,6.30
2022-11-30T17:59:45.745Z,6.30
2022-11-30T18:02:12.918Z,6.30
2022-11-30T18:04:39.776Z,6.20
2022-11-30T18:07:06.475Z,6.30
2022-11-30T18:09:39.253Z,6.30
2022-11-30T18:12:10.619Z,6.50
2022-11-30T18:14:37.281Z,6.20
2022-11-30T18:17:04.204Z,6.30
2022-11-30T18:19:30.853Z,6.20
2022-11-30T18:21:57.526Z,6.30
2022-11-30T18:24:25.801Z,6.20
2022-11-30T18:26:52.705Z,6.20
2022-11-30T18:29:20.125Z,6.20
2022-11-30T18:31:48.300Z,6.20
2022-11-30T18:34:15.233Z,6.20
2022-11-30T18:36:41.831Z,6.20
2022-11-30T18:39:08.511Z,6.20
2022-11-30T18:41:35.519Z,6.20
2022-11-30T18:44:02.066Z,6.20
2022-11-30T18:46:29.658Z,6.20
2022-11-30T18:48:56.644Z,6.20
2022-11-30T18:51:25.570Z,6.20
2022-11-30T18:54:09.781Z,7.10
2022-11-30T18:56:38.354Z,7.40
2022-11-30T18:59:07.681Z,7.60
2022-11-30T19:01:36.329Z,7.20
2022-11-30T19:04:05.956Z,6.90
2022-11-30T19:06:33.469Z,6.80
2022-11-30T19:09:02.482Z,6.60
2022-11-30T19:11:31.904Z,6.60
2022-11-30T19:13:59.954Z,6.60
2022-11-30T19:16:29.118Z,6.50
2022-11-30T19:18:58.623Z,6.50
2022-11-30T19:21:27.061Z,6.50
2022-11-30T19:23:54.768Z,6.50
2022-11-30T19:26:21.433Z,6.50
2022-11-30T19:28:48.280Z,6.40
2022-11-30T19:31:17.440Z,6.40
2022-11-30T19:33:47.697Z,6.50
2022-11-30T19:36:17.962Z,6.50
2022-11-30T19:38:45.807Z,6.50
2022-11-30T19:41:15.153Z,6.40
2022-11-30T19:43:47.746Z,6.40
2022-11-30T19:46:17.996Z,6.40
2022-11-30T19:48:45.183Z,6.40
2022-11-30T19:51:18.642Z,6.40
2022-11-30T19:53:45.509Z,6.40
2022-11-30T19:56:17.089Z,6.40
2022-11-30T19:58:47.126Z,6.40
2022-11-30T20:01:17.125Z,6.40
2022-11-30T20:03:46.732Z,6.40
2022-11-30T20:06:13.483Z,6.40
2022-11-30T20:08:42.004Z,6.40
2022-11-30T20:11:11.058Z,6.40
2022-11-30T20:13:38.309Z,6.40
2022-11-30T20:16:10.316Z,6.50
2022-11-30T20:18:41.295Z,6.50
2022-11-30T20:21:17.756Z,6.50
2022-11-30T20:23:47.102Z,6.40
2022-11-30T20:26:22.451Z,6.40
2022-11-30T20:28:50.768Z,6.40
2022-11-30T20:31:19.624Z,6.40
2022-11-30T20:33:54.247Z,6.40
2022-11-30T20:36:21.587Z,6.40
2022-11-30T20:38:48.674Z,6.40
2022-11-30T20:41:18.785Z,6.40
2022-11-30T20:43:46.028Z,6.40
2022-11-30T20:46:13.628Z,6.40
2022-11-30T20:48:40.376Z,6.40
2022-11-30T20:51:30.072Z,6.40
2022-11-30T20:53:59.604Z,6.40
2022-11-30T20:56:26.290Z,6.40
2022-11-30T20:58:53.015Z,6.40
2022-11-30T21:01:23.675Z,6.40
2022-11-30T21:03:50.528Z,6.40
2022-11-30T21:06:17.433Z,6.40
2022-11-30T21:08:44.571Z,6.40
2022-11-30T21:11:14.113Z,6.40
2022-11-30T21:13:44.180Z,6.40
2022-11-30T21:16:12.927Z,6.40
2022-11-30T21:18:41.543Z,6.40
2022-11-30T21:21:15.803Z,6.40
2022-11-30T21:23:42.990Z,6.40
2022-11-30T21:26:26.503Z,6.40
2022-11-30T21:28:55.730Z,6.40
2022-11-30T21:31:23.366Z,6.40
2022-11-30T21:33:53.548Z,6.40
2022-11-30T21:36:21.750Z,6.40
2022-11-30T21:38:52.445Z,6.40
2022-11-30T21:41:19.021Z,6.40
2022-11-30T21:43:45.744Z,6.40
2022-11-30T21:46:14.815Z,6.50
2022-11-30T21:48:43.515Z,6.50
2022-11-30T21:51:12.402Z,6.40
2022-11-30T21:53:45.292Z,6.40
2022-11-30T21:56:15.718Z,6.40
2022-11-30T21:58:44.381Z,6.40
2022-11-30T22:01:16.640Z,6.40
2022-11-30T22:03:43.735Z,6.40
2022-11-30T22:06:15.668Z,6.40
2022-11-30T22:08:43.100Z,6.30
2022-11-30T22:11:15.531Z,6.40
2022-11-30T22:13:42.744Z,6.30
2022-11-30T22:16:11.935Z,6.40
2022-11-30T22:18:38.961Z,6.30
2022-11-30T22:21:09.882Z,6.30
2022-11-30T22:23:38.829Z,6.40
2022-11-30T22:26:16.811Z,6.40
2022-11-30T22:28:45.921Z,6.40
2022-11-30T22:31:14.615Z,6.30
2022-11-30T22:33:43.102Z,6.30
2022-11-30T22:36:15.779Z,6.30
2022-11-30T22:38:42.698Z,6.30
2022-11-30T22:41:16.113Z,6.30
2022-11-30T22:43:45.520Z,6.30
2022-11-30T22:46:19.733Z,6.30
2022-11-30T22:48:47.427Z,6.30
2022-11-30T22:51:22.394Z,6.30
2022-11-30T22:53:49.775Z,6.30
2022-11-30T22:56:19.677Z,6.30
2022-11-30T22:58:47.989Z,6.30
2022-11-30T23:01:22.905Z,6.30
2022-11-30T23:03:51.220Z,6.30
2022-11-30T23:06:20.078Z,6.30
2022-11-30T23:08:48.009Z,6.20
2022-11-30T23:11:18.579Z,6.30
2022-11-30T23:13:45.396Z,6.30
2022-11-30T23:16:13.744Z,6.30
2022-11-30T23:18:45.100Z,6.30
2022-11-30T23:21:15.099Z,6.30
2022-11-30T23:23:43.533Z,6.30
2022-11-30T23:26:14.284Z,6.30
2022-11-30T23:28:42.794Z,6.30
2022-11-30T23:31:33.503Z,6.30
2022-11-30T23:34:10.475Z,6.30
2022-11-30T23:36:37.715Z,6.30
2022-11-30T23:39:07.327Z,6.30
2022-11-30T23:41:34.450Z,6.30
2022-11-30T23:44:01.411Z,6.30
2022-11-30T23:46:28.355Z,6.20
2022-11-30T23:48:55.885Z,6.30
2022-11-30T23:51:23.333Z,6.30
2022-11-30T23:53:50.033Z,6.30
2022-11-30T23:56:17.981Z,6.30
2022-11-30T23:58:45.097Z,6.30
